createdAt,value
2019-05-07T00:01:44.375Z,102003.14
2019-05-07T00:04:12.904Z,102010.33
2019-05-07T00:06:46.129Z,101997.10
2019-05-07T00:09:13.341Z,101995.09
2019-05-07T00:11:42.635Z,102002.04
2019-05-07T00:14:09.594Z,102001.39
2019-05-07T00:16:36.983Z,101998.91
2019-05-07T00:19:06.448Z,101997.19
2019-05-07T00:21:36.697Z,101996.20
2019-05-07T00:24:03.716Z,101994.20
2019-05-07T00:26:32.049Z,101997.02
2019-05-07T00:28:59.128Z,101995.09
2019-05-07T00:31:29.480Z,101991.88
2019-05-07T00:33:56.509Z,101998.81
2019-05-07T00:36:37.436Z,101997.02
2019-05-07T00:39:21.938Z,101998.58
2019-05-07T00:41:55.951Z,102000.29
2019-05-07T00:44:32.686Z,101997.77
2019-05-07T00:46:59.395Z,101995.72
2019-05-07T00:49:27.804Z,101994.21
2019-05-07T00:51:57.820Z,101999.64
2019-05-07T00:54:24.830Z,101995.80
2019-05-07T00:56:52.264Z,101996.21
2019-05-07T00:59:19.350Z,101989.35
2019-05-07T01:02:06.140Z,101988.12
2019-05-07T01:04:33.272Z,101995.96
2019-05-07T01:07:02.741Z,101994.66
2019-05-07T01:09:32.378Z,101992.25
2019-05-07T01:12:03.165Z,101993.39
2019-05-07T01:14:34.531Z,101992.41
2019-05-07T01:17:02.445Z,101991.80
2019-05-07T01:19:32.956Z,101987.31
2019-05-07T01:22:04.566Z,101987.80
2019-05-07T01:24:40.234Z,101992.53
2019-05-07T01:27:07.269Z,101991.72
2019-05-07T01:29:36.202Z,101993.39
2019-05-07T01:32:12.711Z,101994.86
2019-05-07T01:34:54.002Z,101989.70
2019-05-07T01:37:23.118Z,101994.20
2019-05-07T01:39:50.053Z,101995.29
2019-05-07T01:42:17.084Z,101992.39
2019-05-07T01:44:44.131Z,101994.52
2019-05-07T01:47:13.047Z,101998.16
2019-05-07T01:49:42.303Z,101994.80
2019-05-07T01:52:09.400Z,101992.17
2019-05-07T01:54:36.398Z,101998.84
2019-05-07T01:57:08.129Z,101992.73
2019-05-07T01:59:35.204Z,101992.17
2019-05-07T02:02:16.630Z,101993.42
2019-05-07T02:04:52.147Z,101997.15
2019-05-07T02:07:24.607Z,101989.66
2019-05-07T02:10:19.318Z,101989.02
2019-05-07T02:12:52.671Z,101992.68
2019-05-07T02:15:19.690Z,101994.61
2019-05-07T02:17:49.706Z,101988.27
2019-05-07T02:20:16.821Z,101988.89
2019-05-07T02:22:46.841Z,101997.69
2019-05-07T02:25:13.906Z,101989.92
2019-05-07T02:27:42.103Z,101994.05
2019-05-07T02:30:09.321Z,101989.37
2019-05-07T02:32:42.931Z,101989.80
2019-05-07T02:35:08.685Z,101995.07
2019-05-07T02:37:52.270Z,101990.06
2019-05-07T02:40:33.956Z,101993.00
2019-05-07T02:43:03.018Z,101985.78
2019-05-07T02:45:49.575Z,101983.70
2019-05-07T02:48:19.690Z,101987.22
2019-05-07T02:50:58.201Z,101984.27
2019-05-07T02:53:53.643Z,101989.56
2019-05-07T02:56:23.463Z,101985.45
2019-05-07T02:58:49.089Z,101991.98
2019-05-07T03:01:18.770Z,101984.55
2019-05-07T03:03:45.833Z,101989.37
2019-05-07T03:06:16.925Z,101990.19
2019-05-07T03:08:44.200Z,101984.96
2019-05-07T03:11:14.068Z,101985.05
2019-05-07T03:13:43.534Z,101981.45
2019-05-07T03:16:13.153Z,101977.29
2019-05-07T03:18:43.526Z,101978.51
2019-05-07T03:21:14.685Z,101978.10
2019-05-07T03:23:53.838Z,101977.98
2019-05-07T03:26:25.368Z,101974.38
2019-05-07T03:28:54.415Z,101974.66
2019-05-07T03:31:48.546Z,101980.57
2019-05-07T03:34:37.037Z,101975.63
2019-05-07T03:37:06.852Z,101973.31
2019-05-07T03:39:35.223Z,101970.36
2019-05-07T03:42:03.413Z,101977.64
2019-05-07T03:44:44.839Z,101972.34
2019-05-07T03:47:37.168Z,101974.05
2019-05-07T03:50:09.084Z,101978.31
2019-05-07T03:52:36.146Z,101975.83
2019-05-07T03:55:03.954Z,101973.38
2019-05-07T03:57:33.954Z,101974.92
2019-05-07T04:00:04.311Z,101975.44
2019-05-07T04:02:32.875Z,101969.38
2019-05-07T04:04:58.998Z,101967.55
2019-05-07T04:07:25.999Z,101966.59
2019-05-07T04:09:53.534Z,101964.20
2019-05-07T04:12:23.823Z,101958.66
2019-05-07T04:14:55.833Z,101963.00
2019-05-07T04:17:27.742Z,101957.44
2019-05-07T04:19:54.789Z,101960.39
2019-05-07T04:22:28.963Z,101952.41
2019-05-07T04:25:09.209Z,101955.11
2019-05-07T04:27:46.873Z,101958.55
2019-05-07T04:30:13.081Z,101951.19
2019-05-07T04:33:08.832Z,101949.63
2019-05-07T04:35:45.883Z,101950.70
2019-05-07T04:38:13.916Z,101947.42
2019-05-07T04:40:43.502Z,101960.85
2019-05-07T04:43:13.641Z,101957.72
2019-05-07T04:45:43.270Z,101961.42
2019-05-07T04:48:09.938Z,101962.69
2019-05-07T04:50:43.392Z,101961.72
2019-05-07T04:53:07.623Z,101962.82
2019-05-07T04:55:38.343Z,101955.14
2019-05-07T04:58:08.889Z,101953.02
2019-05-07T05:00:34.366Z,101956.31
2019-05-07T05:03:23.864Z,101948.77
2019-05-07T05:05:57.246Z,101946.72
2019-05-07T05:08:24.219Z,101953.05
2019-05-07T05:10:53.765Z,101953.87
2019-05-07T05:13:20.152Z,101946.39
2019-05-07T05:15:47.180Z,101954.06
2019-05-07T05:18:14.220Z,101955.37
2019-05-07T05:21:20.166Z,101948.64
2019-05-07T05:23:57.326Z,101946.20
2019-05-07T05:26:25.688Z,101953.16
2019-05-07T05:28:57.662Z,101947.21
2019-05-07T05:31:24.674Z,101950.92
2019-05-07T05:33:52.805Z,101949.82
2019-05-07T05:36:24.539Z,101953.14
2019-05-07T05:38:52.927Z,101951.16
2019-05-07T05:41:23.254Z,101945.65
2019-05-07T05:44:17.402Z,101949.34
2019-05-07T05:46:44.448Z,101944.70
2019-05-07T05:49:16.919Z,101948.70
2019-05-07T05:52:06.595Z,101946.55
2019-05-07T05:54:46.260Z,101951.92
2019-05-07T05:57:35.723Z,101943.61
2019-05-07T06:00:38.311Z,101944.88
2019-05-07T06:03:32.233Z,101946.34
2019-05-07T06:06:18.778Z,101943.86
2019-05-07T06:09:04.093Z,101944.43
2019-05-07T06:11:53.426Z,101932.20
2019-05-07T06:14:29.242Z,101938.23
2019-05-07T06:17:12.956Z,101934.41
2019-05-07T06:20:00.002Z,101935.92
2019-05-07T06:22:43.579Z,101933.91
2019-05-07T06:25:18.335Z,101931.61
2019-05-07T06:27:45.389Z,101934.78
2019-05-07T06:30:14.205Z,101926.51
2019-05-07T06:32:43.010Z,101924.50
2019-05-07T06:35:12.312Z,101923.84
2019-05-07T06:37:39.511Z,101937.53
2019-05-07T06:40:32.184Z,101937.89
2019-05-07T06:43:15.629Z,101942.25
2019-05-07T06:45:51.752Z,101943.75
2019-05-07T06:48:33.564Z,101948.43
2019-05-07T06:50:58.269Z,101945.67
2019-05-07T06:53:27.102Z,101942.28
2019-05-07T06:55:54.138Z,101948.00
2019-05-07T06:58:25.557Z,101945.64
2019-05-07T07:01:15.173Z,101947.81
2019-05-07T07:04:04.167Z,101943.94
2019-05-07T07:06:53.480Z,101950.31
2019-05-07T07:09:27.729Z,101939.97
2019-05-07T07:11:59.189Z,101941.05
2019-05-07T07:14:26.345Z,101933.55
2019-05-07T07:16:53.464Z,101939.03
2019-05-07T07:19:20.583Z,101943.24
2019-05-07T07:21:47.697Z,101937.02
2019-05-07T07:24:14.716Z,101935.95
2019-05-07T07:26:42.292Z,101928.96
2019-05-07T07:29:14.078Z,101929.44
2019-05-07T07:31:46.259Z,101928.51
2019-05-07T07:34:17.554Z,101921.02
2019-05-07T07:37:05.356Z,101930.26
2019-05-07T07:39:27.508Z,101924.38
2019-05-07T07:41:57.148Z,101917.16
2019-05-07T07:44:26.969Z,101913.58
2019-05-07T07:46:57.777Z,101909.33
2019-05-07T07:49:24.819Z,101909.84
2019-05-07T07:51:52.574Z,101911.84
2019-05-07T07:54:19.862Z,101906.51
2019-05-07T07:57:18.568Z,101902.16
2019-05-07T08:00:04.781Z,101904.16
2019-05-07T08:03:02.116Z,101903.55
2019-05-07T08:05:29.097Z,101903.25
2019-05-07T08:07:58.516Z,101898.09
2019-05-07T08:10:25.623Z,101898.47
2019-05-07T08:12:52.677Z,101901.02
2019-05-07T08:15:24.487Z,101894.25
2019-05-07T08:17:52.185Z,101893.62
2019-05-07T08:20:22.062Z,101888.86
2019-05-07T08:22:55.132Z,101887.98
2019-05-07T08:25:42.698Z,101887.55
2019-05-07T08:28:16.181Z,101888.20
2019-05-07T08:30:53.061Z,101886.14
2019-05-07T08:33:24.540Z,101876.51
2019-05-07T08:36:14.496Z,101878.34
2019-05-07T08:38:52.758Z,101882.59
2019-05-07T08:41:22.428Z,101879.44
2019-05-07T08:43:51.819Z,101881.45
2019-05-07T08:46:30.067Z,101880.19
2019-05-07T08:49:01.947Z,101882.74
2019-05-07T08:51:30.142Z,101873.31
2019-05-07T08:54:04.718Z,101877.86
2019-05-07T08:56:35.939Z,101868.19
2019-05-07T08:59:03.717Z,101869.25
2019-05-07T09:01:36.256Z,101868.16
2019-05-07T09:04:05.200Z,101863.27
2019-05-07T09:06:39.791Z,101866.02
2019-05-07T09:09:18.071Z,101862.70
2019-05-07T09:11:45.156Z,101865.44
2019-05-07T09:14:16.158Z,101860.50
2019-05-07T09:16:43.175Z,101858.13
2019-05-07T09:19:12.609Z,101862.80
2019-05-07T09:21:39.227Z,101856.30
2019-05-07T09:24:11.941Z,101854.95
2019-05-07T09:26:52.379Z,101851.95
2019-05-07T09:29:32.401Z,101861.02
2019-05-07T09:32:17.607Z,101855.73
2019-05-07T09:34:46.046Z,101853.44
2019-05-07T09:37:22.637Z,101849.60
2019-05-07T09:39:52.015Z,101849.29
2019-05-07T09:42:22.613Z,101852.60
2019-05-07T09:44:53.056Z,101856.12
2019-05-07T09:47:21.891Z,101844.33
2019-05-07T09:50:03.879Z,101847.98
2019-05-07T09:52:22.863Z,101848.87
2019-05-07T09:54:52.015Z,101844.52
2019-05-07T09:57:30.385Z,101844.02
2019-05-07T09:59:55.199Z,101835.25
2019-05-07T10:02:22.815Z,101836.20
2019-05-07T10:04:49.840Z,101838.98
2019-05-07T10:07:22.339Z,101831.79
2019-05-07T10:09:52.316Z,101831.48
2019-05-07T10:12:42.209Z,101825.59
2019-05-07T10:15:09.649Z,101833.06
2019-05-07T10:17:45.199Z,101827.53
2019-05-07T10:20:21.847Z,101829.75
2019-05-07T10:22:44.693Z,101826.52
2019-05-07T10:25:12.281Z,101827.59
2019-05-07T10:27:41.672Z,101824.88
2019-05-07T10:30:10.011Z,101822.78
2019-05-07T10:32:43.265Z,101825.10
2019-05-07T10:35:12.718Z,101822.70
2019-05-07T10:37:42.084Z,101818.49
2019-05-07T10:40:12.273Z,101817.64
2019-05-07T10:42:39.448Z,101815.03
2019-05-07T10:45:26.380Z,101819.17
2019-05-07T10:48:11.703Z,101815.67
2019-05-07T10:50:42.407Z,101813.24
2019-05-07T10:53:09.243Z,101807.64
2019-05-07T10:55:36.685Z,101807.53
2019-05-07T10:58:06.574Z,101798.28
2019-05-07T11:00:35.257Z,101802.53
2019-05-07T11:03:02.546Z,101806.27
2019-05-07T11:05:32.783Z,101799.05
2019-05-07T11:08:05.203Z,101798.98
2019-05-07T11:10:32.788Z,101798.31
2019-05-07T11:13:02.109Z,101793.58
2019-05-07T11:15:34.294Z,101797.91
2019-05-07T11:18:26.443Z,101791.11
2019-05-07T11:20:53.653Z,101787.97
2019-05-07T11:23:23.247Z,101793.09
2019-05-07T11:25:54.035Z,101786.55
2019-05-07T11:28:22.718Z,101788.73
2019-05-07T11:30:49.829Z,101788.45
2019-05-07T11:33:21.858Z,101782.05
2019-05-07T11:35:48.518Z,101775.19
2019-05-07T11:38:22.272Z,101775.89
2019-05-07T11:40:51.785Z,101773.26
2019-05-07T11:43:43.849Z,101766.64
2019-05-07T11:46:22.085Z,101757.78
2019-05-07T11:49:00.217Z,101760.16
2019-05-07T11:51:55.800Z,101765.20
2019-05-07T11:54:31.863Z,101763.58
2019-05-07T11:57:04.194Z,101760.33
2019-05-07T11:59:32.629Z,101753.04
2019-05-07T12:02:05.448Z,101757.25
2019-05-07T12:04:32.454Z,101760.16
2019-05-07T12:07:06.438Z,101759.01
2019-05-07T12:09:33.515Z,101756.92
2019-05-07T12:12:02.385Z,101757.89
2019-05-07T12:14:34.953Z,101763.72
2019-05-07T12:17:03.908Z,101760.19
2019-05-07T12:19:32.978Z,101762.21
2019-05-07T12:22:03.247Z,101760.36
2019-05-07T12:24:32.673Z,101758.84
2019-05-07T12:26:59.258Z,101753.39
2019-05-07T12:29:26.811Z,101750.22
2019-05-07T12:32:19.317Z,101742.48
2019-05-07T12:34:52.654Z,101746.17
2019-05-07T12:37:22.896Z,101748.36
2019-05-07T12:39:52.653Z,101747.83
2019-05-07T12:42:29.786Z,101747.61
2019-05-07T12:45:05.308Z,101754.98
2019-05-07T12:47:32.376Z,101740.25
2019-05-07T12:50:03.014Z,101745.44
2019-05-07T12:52:49.721Z,101739.44
2019-05-07T12:55:24.344Z,101738.58
2019-05-07T12:58:06.253Z,101731.09
2019-05-07T13:00:54.457Z,101725.52
2019-05-07T13:03:46.782Z,101717.64
2019-05-07T13:06:13.823Z,101713.54
2019-05-07T13:08:41.974Z,101706.27
2019-05-07T13:11:09.106Z,101710.47
2019-05-07T13:13:36.139Z,101707.12
2019-05-07T13:16:04.685Z,101705.93
2019-05-07T13:18:31.724Z,101702.66
2019-05-07T13:21:02.450Z,101695.86
2019-05-07T13:23:31.611Z,101692.97
2019-05-07T13:26:02.562Z,101691.81
2019-05-07T13:28:29.872Z,101687.59
2019-05-07T13:30:58.217Z,101684.39
2019-05-07T13:33:26.601Z,101684.50
2019-05-07T13:35:57.054Z,101674.47
2019-05-07T13:38:59.517Z,101675.14
2019-05-07T13:41:48.817Z,101666.31
2019-05-07T13:44:42.653Z,101668.28
2019-05-07T13:47:27.553Z,101657.96
2019-05-07T13:50:02.461Z,101661.72
2019-05-07T13:52:33.271Z,101654.91
2019-05-07T13:55:02.035Z,101658.47
2019-05-07T13:57:32.242Z,101652.11
2019-05-07T14:00:18.960Z,101639.48
2019-05-07T14:02:45.998Z,101636.25
2019-05-07T14:05:17.984Z,101636.25
2019-05-07T14:07:50.251Z,101637.41
2019-05-07T14:10:19.622Z,101630.05
2019-05-07T14:12:46.738Z,101630.20
2019-05-07T14:15:16.366Z,101627.64
2019-05-07T14:17:46.498Z,101629.17
2019-05-07T14:20:16.034Z,101621.63
2019-05-07T14:22:43.106Z,101617.14
2019-05-07T14:25:12.098Z,101616.25
2019-05-07T14:27:40.326Z,101628.88
2019-05-07T14:30:12.921Z,101626.78
2019-05-07T14:32:52.607Z,101626.01
2019-05-07T14:35:49.601Z,101627.34
2019-05-07T14:38:25.196Z,101638.50
2019-05-07T14:40:52.826Z,101636.85
2019-05-07T14:43:41.888Z,101649.59
2019-05-07T14:46:09.038Z,101655.45
2019-05-07T14:48:49.617Z,101661.28
2019-05-07T14:51:16.590Z,101663.13
2019-05-07T14:53:46.884Z,101657.44
2019-05-07T14:56:16.684Z,101663.95
2019-05-07T14:58:48.379Z,101658.31
2019-05-07T15:01:15.394Z,101651.33
2019-05-07T15:03:42.526Z,101649.31
2019-05-07T15:06:16.155Z,101647.67
2019-05-07T15:08:46.212Z,101640.00
2019-05-07T15:11:20.488Z,101637.25
2019-05-07T15:13:52.196Z,101632.75
2019-05-07T15:16:22.520Z,101628.83
2019-05-07T15:18:54.895Z,101618.05
2019-05-07T16:35:55.961Z,101529.41
2019-05-07T16:38:22.913Z,101525.51
2019-05-07T16:40:52.016Z,101521.13
2019-05-07T16:43:18.757Z,101522.34
2019-05-07T16:45:45.697Z,101520.27
2019-05-07T16:48:12.712Z,101514.52
2019-05-07T16:50:39.682Z,101510.33
2019-05-07T16:53:06.645Z,101507.48
2019-05-07T16:55:36.609Z,101502.38
2019-05-07T16:58:23.432Z,101497.63
2019-05-07T17:00:53.813Z,101499.50
2019-05-07T17:03:24.772Z,101501.31
2019-05-07T17:05:52.377Z,101495.69
2019-05-07T17:08:23.638Z,101496.59
2019-05-07T17:10:52.387Z,101489.53
2019-05-07T17:13:19.511Z,101494.28
2019-05-07T17:15:59.578Z,101493.25
2019-05-07T17:18:27.382Z,101490.06
2019-05-07T17:20:55.126Z,101486.27
2019-05-07T17:23:22.659Z,101481.72
2019-05-07T17:25:52.750Z,101479.97
2019-05-07T17:28:19.709Z,101482.34
2019-05-07T17:30:46.674Z,101479.41
2019-05-07T17:33:15.901Z,101478.22
2019-05-07T17:35:42.866Z,101475.48
2019-05-07T17:38:12.263Z,101474.52
2019-05-07T17:40:38.660Z,101467.92
2019-05-07T17:43:05.675Z,101461.59
2019-05-07T17:45:33.022Z,101462.70
2019-05-07T17:48:00.210Z,101452.52
2019-05-07T17:50:33.737Z,101449.34
2019-05-07T17:53:00.689Z,101450.66
2019-05-07T17:55:27.645Z,101442.91
2019-05-07T17:57:54.632Z,101442.73
2019-05-07T18:00:22.119Z,101440.94
2019-05-07T18:03:07.541Z,101437.27
2019-05-07T18:05:34.478Z,101438.13
2019-05-07T18:08:02.068Z,101434.17
2019-05-07T18:10:29.285Z,101434.89
2019-05-07T18:12:56.250Z,101430.58
2019-05-07T18:15:24.415Z,101431.42
2019-05-07T18:18:00.953Z,101425.55
2019-05-07T18:20:29.154Z,101424.59
2019-05-07T18:22:56.135Z,101423.27
2019-05-07T18:25:23.111Z,101418.53
2019-05-07T18:27:50.062Z,101410.16
2019-05-07T18:30:17.011Z,101416.75
2019-05-07T18:32:56.433Z,101410.16
2019-05-07T18:35:23.472Z,101412.73
2019-05-07T18:37:52.516Z,101416.94
2019-05-07T18:40:20.361Z,101407.42
2019-05-07T18:42:47.428Z,101411.70
2019-05-07T18:45:14.383Z,101408.14
2019-05-07T18:47:43.386Z,101412.06
2019-05-07T18:50:12.684Z,101417.37
2019-05-07T18:52:39.373Z,101415.16
2019-05-07T18:55:06.526Z,101414.16
2019-05-07T18:57:33.550Z,101410.63
2019-05-07T19:00:03.187Z,101404.83
2019-05-07T19:02:29.381Z,101410.98
2019-05-07T19:04:56.376Z,101410.10
2019-05-07T19:07:23.338Z,101408.92
2019-05-07T19:09:51.683Z,101411.91
2019-05-07T19:12:22.320Z,101401.45
2019-05-07T19:14:51.624Z,101399.23
2019-05-07T19:17:18.482Z,101402.34
2019-05-07T19:19:48.405Z,101406.72
2019-05-07T19:22:15.372Z,101408.50
2019-05-07T19:24:47.806Z,101407.54
2019-05-07T19:27:12.656Z,101411.09
2019-05-07T19:29:43.400Z,101410.17
2019-05-07T19:32:12.117Z,101401.27
2019-05-07T19:34:39.227Z,101407.86
2019-05-07T19:37:06.244Z,101406.47
2019-05-07T19:39:33.205Z,101413.02
2019-05-07T19:42:02.755Z,101420.50
2019-05-07T19:44:29.844Z,101417.79
2019-05-07T19:46:56.781Z,101412.41
2019-05-07T19:49:23.768Z,101418.21
2019-05-07T19:51:52.385Z,101419.11
2019-05-07T19:54:19.620Z,101435.59
2019-05-07T19:56:46.613Z,101442.41
2019-05-07T19:59:13.668Z,101439.73
2019-05-07T20:01:45.302Z,101440.21
2019-05-07T20:04:13.269Z,101438.84
2019-05-07T20:06:40.328Z,101444.64
2019-05-07T20:09:12.459Z,101447.25
2019-05-07T20:11:48.619Z,101447.25
2019-05-07T20:14:15.583Z,101444.95
2019-05-07T20:16:42.566Z,101418.78
2019-05-07T20:19:11.869Z,101418.78
2019-05-07T20:21:38.442Z,101424.90
2019-05-07T20:24:05.396Z,101424.66
2019-05-07T20:26:32.922Z,101417.84
2019-05-07T20:29:03.057Z,101426.25
2019-05-07T20:31:30.221Z,101409.03
2019-05-07T20:33:57.207Z,101418.91
2019-05-07T20:36:24.214Z,101426.53
2019-05-07T20:38:52.325Z,101415.16
2019-05-07T20:41:19.279Z,101407.95
2019-05-07T20:43:46.234Z,101404.73
2019-05-07T20:46:13.210Z,101402.92
2019-05-07T20:48:42.359Z,101395.80
2019-05-07T20:51:09.160Z,101398.78
2019-05-07T20:53:53.239Z,101382.95
2019-05-07T20:56:24.264Z,101392.89
2019-05-07T20:58:52.060Z,101394.25
2019-05-07T21:01:21.977Z,101382.95
2019-05-07T21:03:49.272Z,101384.80
2019-05-07T21:06:16.220Z,101377.75
2019-05-07T21:08:43.270Z,101372.91
2019-05-07T21:11:11.913Z,101368.97
2019-05-07T21:13:42.070Z,101367.77
2019-05-07T21:16:12.634Z,101369.43
2019-05-07T21:18:39.474Z,101360.56
2019-05-07T21:21:06.444Z,101361.42
2019-05-07T21:23:36.452Z,101356.93
2019-05-07T21:26:03.432Z,101359.56
2019-05-07T21:28:32.328Z,101359.37
2019-05-07T21:30:59.271Z,101356.66
2019-05-07T21:33:26.239Z,101354.42
2019-05-07T21:35:53.248Z,101353.88
2019-05-07T21:38:22.402Z,101357.83
2019-05-07T21:40:49.106Z,101354.34
2019-05-07T21:43:16.071Z,101350.39
2019-05-07T21:45:43.050Z,101346.38
2019-05-07T21:48:10.068Z,101335.31
2019-05-07T21:50:37.016Z,101337.39
2019-05-07T21:53:09.326Z,101335.92
2019-05-07T21:55:44.260Z,101331.01
2019-05-07T21:58:28.828Z,101329.97
2019-05-07T22:01:12.484Z,101333.34
2019-05-07T22:03:39.951Z,101330.31
2019-05-07T22:06:09.706Z,101329.66
2019-05-07T22:08:35.943Z,101320.25
2019-05-07T22:11:04.695Z,101321.37
2019-05-07T22:13:32.952Z,101317.73
2019-05-07T22:16:02.480Z,101316.30
2019-05-07T22:18:32.028Z,101313.17
2019-05-07T22:20:58.732Z,101306.39
2019-05-07T22:23:28.813Z,101303.22
2019-05-07T22:25:58.944Z,101303.22
2019-05-07T22:28:28.981Z,101298.27
2019-05-07T22:31:18.760Z,101307.81
2019-05-07T22:34:12.858Z,101295.02
2019-05-07T22:36:39.989Z,101282.93
2019-05-07T22:39:06.996Z,101282.93
2019-05-07T22:41:33.972Z,101290.69
2019-05-07T22:44:02.546Z,101283.92
2019-05-07T22:46:29.646Z,101273.89
2019-05-07T22:48:56.620Z,101263.36
2019-05-07T22:51:23.608Z,101263.36
2019-05-07T22:53:50.561Z,101271.23
2019-05-07T22:56:30.989Z,101267.30
2019-05-07T22:58:49.812Z,101260.33
2019-05-07T23:01:16.832Z,101254.95
2019-05-07T23:03:43.799Z,101252.61
2019-05-07T23:06:13.109Z,101236.73
2019-05-07T23:08:42.262Z,101236.73
2019-05-07T23:11:08.920Z,101229.06
2019-05-07T23:13:38.241Z,101230.09
2019-05-07T23:16:05.652Z,101226.70
2019-05-07T23:18:32.602Z,101224.03
2019-05-07T23:20:59.594Z,101220.34
2019-05-07T23:23:26.549Z,101218.30
2019-05-07T23:25:53.508Z,101218.30
2019-05-07T23:28:22.805Z,101209.30
2019-05-07T23:30:51.701Z,101214.83
2019-05-07T23:33:18.267Z,101206.87
2019-05-07T23:35:45.274Z,101203.52
2019-05-07T23:38:15.491Z,101201.91
2019-05-07T23:40:52.571Z,101201.20
2019-05-07T23:43:19.858Z,101201.20
2019-05-07T23:45:46.821Z,101201.95
2019-05-07T23:48:13.775Z,101197.80
2019-05-07T23:50:41.869Z,101197.24
2019-05-07T23:53:08.946Z,101195.38
2019-05-07T23:55:35.894Z,101187.84
2019-05-07T23:58:03.203Z,101184.75
